Gumtree, North Carolina
Current Conditions -  °F | °C
As of 12:54 AM on Monday 22 Dec 2014 (Local Time) from KINT Reporting Station
Overcast Overcast  
Wind Chill: 34°   Ceiling: 3700
Heat Index: 40°   Visibility: 10mi
Dew Point: 31°   Wind: 9mph
Humidity: 70%   Direction: 50°NE
Pressure: 30.19"   Gusts: NA
Location:  36.0182°N, 80.183°W
Report Text: KINT 220554Z AUTO 05008KT 10SM OVC037 04/M01 A3019 RMK AO2 SLP226 T00441006 10056 20044 58010
Loading
Personal Weather Stations






























Interactive Weather Map New forecast layout! Learn more

10-Day Weather Forecast

Advertisements
Track Severe Weather on mobile